Time;durP1;ratioP1;P1;durP2;ratioP2;P2;SDS_P1;SDS_P2;PMS_P1;PMS_P2;Temp;Humidity;BMP_temperature;BMP_pressure;BME280_temperature;BME280_humidity;BME280_pressure;Samples;Min_cycle;Max_cycle;Signal;HPM_P1;HPM_P2
2022/06/05 00:02:37;;;;;;;2.53;1.75;;;17.30;99.90;;;;;;5030267;28;20022;-80
2022/06/05 00:05:12;;;;;;;2.10;2.00;;;17.30;99.90;;;;;;5030156;28;20025;-80
2022/06/05 00:08:02;;;;;;;2.47;2.28;;;17.40;99.90;;;;;;5029681;28;20298;-79
2022/06/05 00:10:34;;;;;;;8.02;2.03;;;17.40;99.90;;;;;;5029039;28;20254;-77
2022/06/05 00:13:24;;;;;;;3.97;2.85;;;17.30;99.90;;;;;;5029824;28;20156;-75
2022/06/05 00:15:50;;;;;;;2.28;1.80;;;17.20;99.90;;;;;;5018278;28;20050;-77
2022/06/05 00:18:15;;;;;;;3.00;2.65;;;17.10;99.90;;;;;;5008615;28;20038;-78
2022/06/05 00:20:43;;;;;;;5.05;2.38;;;17.20;99.90;;;;;;5010363;28;20506;-79
2022/06/05 00:23:09;;;;;;;4.40;2.10;;;17.30;99.90;;;;;;5011858;28;20050;-78
2022/06/05 00:25:42;;;;;;;5.07;2.00;;;17.30;99.90;;;;;;5008335;28;20089;-78
2022/06/05 00:28:26;;;;;;;4.05;2.47;;;17.30;99.90;;;;;;5008296;28;20034;-80
2022/06/05 00:31:28;;;;;;;5.72;2.60;;;17.30;99.90;;;;;;5007030;28;20056;-78
2022/06/05 00:33:56;;;;;;;1.92;1.80;;;17.40;99.90;;;;;;5005932;28;20406;-80
2022/06/05 00:36:40;;;;;;;2.08;1.85;;;17.50;99.90;;;;;;5007116;28;20115;-79
2022/06/05 00:39:10;;;;;;;4.07;2.08;;;17.40;99.90;;;;;;5006947;28;20128;-78
2022/06/05 00:42:16;;;;;;;3.17;2.05;;;17.40;99.90;;;;;;5009288;28;20482;-79
2022/06/05 00:44:54;;;;;;;3.08;1.95;;;17.50;99.90;;;;;;4968534;28;20526;-79
2022/06/05 00:47:23;;;;;;;5.63;2.45;;;17.50;99.90;;;;;;5005844;28;20034;-79
2022/06/05 00:50:06;;;;;;;5.53;2.10;;;17.70;99.90;;;;;;5008315;28;20621;-78
2022/06/05 00:52:35;;;;;;;3.42;2.70;;;17.70;99.90;;;;;;5011004;28;20034;-80
2022/06/05 00:55:02;;;;;;;4.30;2.33;;;17.70;99.90;;;;;;5009239;28;20026;-78
2022/06/05 00:57:30;;;;;;;1.73;1.63;;;17.60;99.90;;;;;;5007312;28;20053;-80
2022/06/05 00:59:58;;;;;;;4.70;3.13;;;17.50;99.90;;;;;;5009246;28;20463;-81
2022/06/05 01:02:24;;;;;;;2.42;2.10;;;17.50;99.90;;;;;;5009281;28;20033;-77
2022/06/05 01:04:51;;;;;;;2.55;2.35;;;17.60;99.90;;;;;;5008884;28;20450;-79
2022/06/05 01:07:19;;;;;;;5.93;2.20;;;17.60;99.90;;;;;;5008234;28;20391;-78
2022/06/05 01:09:46;;;;;;;2.53;1.95;;;17.80;99.90;;;;;;5009534;28;20580;-79
2022/06/05 01:12:35;;;;;;;4.47;2.25;;;17.70;99.90;;;;;;5009332;28;20458;-78
2022/06/05 01:15:36;;;;;;;13.63;4.60;;;17.60;99.90;;;;;;5008458;28;20099;-80
2022/06/05 01:18:24;;;;;;;10.75;5.85;;;17.70;99.90;;;;;;5035533;28;20141;-79
2022/06/05 01:20:52;;;;;;;9.82;6.05;;;18.60;99.90;;;;;;5040417;28;20029;-79
2022/06/05 01:23:37;;;;;;;7.53;5.47;;;18.70;99.90;;;;;;5040118;28;20272;-77
2022/06/05 01:26:20;;;;;;;8.45;6.55;;;18.60;99.90;;;;;;5039354;28;20029;-78
2022/06/05 01:29:13;;;;;;;7.63;6.22;;;18.50;99.90;;;;;;5039667;28;20123;-77
2022/06/05 01:31:46;;;;;;;10.75;6.57;;;18.50;99.90;;;;;;5023909;28;20520;-79
2022/06/05 01:34:34;;;;;;;9.27;5.82;;;18.40;99.90;;;;;;5033781;28;20033;-79
2022/06/05 01:37:14;;;;;;;9.70;7.25;;;18.40;99.90;;;;;;5035181;28;20057;-79
2022/06/05 01:39:53;;;;;;;11.15;7.60;;;17.90;99.90;;;;;;5039119;28;20026;-77
2022/06/05 01:42:38;;;;;;;13.13;8.40;;;18.00;99.90;;;;;;5032217;28;20213;-78
2022/06/05 01:45:33;;;;;;;11.75;7.95;;;17.90;99.90;;;;;;5026634;28;20224;-78
2022/06/05 01:48:02;;;;;;;11.00;6.72;;;18.00;99.90;;;;;;5024491;28;20413;-78
2022/06/05 01:50:42;;;;;;;9.93;6.53;;;18.10;99.90;;;;;;5027590;28;20317;-79
2022/06/05 01:53:18;;;;;;;9.10;7.38;;;18.20;99.90;;;;;;5028766;28;20068;-79
2022/06/05 01:56:22;;;;;;;9.68;6.75;;;18.20;99.90;;;;;;5028172;28;20474;-79
2022/06/05 01:58:54;;;;;;;11.60;6.95;;;18.30;99.90;;;;;;4993273;28;20047;-79
2022/06/05 02:01:25;;;;;;;10.73;6.03;;;18.30;99.90;;;;;;5028106;28;20037;-80
2022/06/05 02:04:06;;;;;;;11.13;8.10;;;18.20;99.90;;;;;;5027052;28;20088;-79
2022/06/05 02:06:53;;;;;;;11.95;7.75;;;18.20;99.90;;;;;;5026577;28;20468;-78
2022/06/05 02:10:10;;;;;;;8.73;6.93;;;18.40;99.90;;;;;;5029924;28;20021;-78
2022/06/05 02:12:37;;;;;;;11.10;7.95;;;18.50;99.90;;;;;;5003586;28;20037;-78
2022/06/05 02:15:03;;;;;;;11.25;7.13;;;18.50;99.90;;;;;;5030304;28;20072;-79
2022/06/05 02:17:30;;;;;;;8.50;6.57;;;18.50;99.90;;;;;;5029907;28;20038;-80
2022/06/05 02:19:59;;;;;;;10.02;8.07;;;18.50;99.90;;;;;;5028756;28;20025;-80
2022/06/05 02:22:32;;;;;;;11.95;6.15;;;18.50;99.90;;;;;;5029039;28;20029;-79
2022/06/05 02:24:58;;;;;;;9.60;6.43;;;17.80;99.90;;;;;;5028965;28;20021;-80
2022/06/05 02:27:26;;;;;;;6.68;5.53;;;18.40;99.90;;;;;;5027466;28;20100;-80
2022/06/05 02:29:53;;;;;;;12.65;5.90;;;18.40;99.90;;;;;;5035878;28;20030;-80
2022/06/05 02:32:53;;;;;;;7.43;6.13;;;18.40;99.90;;;;;;5041494;28;20036;-80
2022/06/05 02:35:34;;;;;;;9.48;5.78;;;18.30;99.90;;;;;;5040214;28;20021;-80
2022/06/05 02:38:11;;;;;;;9.80;6.18;;;18.30;99.90;;;;;;5039790;28;20072;-80
2022/06/05 02:40:51;;;;;;;7.15;6.05;;;18.30;99.90;;;;;;5040018;28;20024;-79
2022/06/05 02:43:35;;;;;;;7.50;6.25;;;18.30;99.90;;;;;;5040605;28;20033;-80
2022/06/05 02:46:19;;;;;;;10.52;6.80;;;18.30;99.90;;;;;;5039656;28;20245;-80
2022/06/05 02:49:01;;;;;;;9.73;7.30;;;18.20;99.90;;;;;;5036110;28;20029;-82
2022/06/05 02:51:37;;;;;;;10.95;6.72;;;18.20;99.90;;;;;;5035150;28;20064;-86
2022/06/05 02:54:03;;;;;;;8.82;6.60;;;18.10;99.90;;;;;;5029684;28;20021;-80
2022/06/05 02:56:31;;;;;;;9.32;7.97;;;18.10;99.90;;;;;;5029400;28;20056;-80
2022/06/05 02:58:59;;;;;;;13.23;8.90;;;18.00;99.90;;;;;;5035333;28;20032;-81
2022/06/05 03:04:10;;;;;;;13.07;8.98;;;17.50;99.90;;;;;;5037042;28;20039;-80
2022/06/05 03:06:40;;;;;;;14.40;9.32;;;17.50;99.90;;;;;;5035283;28;20056;-80
2022/06/05 03:09:06;;;;;;;11.38;7.72;;;17.50;99.90;;;;;;5034631;28;20471;-80
2022/06/05 03:11:33;;;;;;;10.60;8.20;;;17.50;99.90;;;;;;5036341;28;20034;-79
2022/06/05 03:13:59;;;;;;;12.00;8.15;;;17.50;99.90;;;;;;5035184;28;20040;-80
2022/06/05 03:16:26;;;;;;;10.45;7.50;;;17.50;99.90;;;;;;5028863;28;20520;-80
2022/06/05 03:18:52;;;;;;;10.13;7.45;;;17.50;99.90;;;;;;5027473;28;20033;-83
2022/06/05 03:21:18;;;;;;;14.13;8.32;;;17.50;99.90;;;;;;5029887;28;20033;-83
2022/06/05 03:23:44;;;;;;;12.73;8.55;;;17.40;99.90;;;;;;5028225;28;20219;-80
2022/06/05 03:26:11;;;;;;;12.45;7.55;;;17.40;99.90;;;;;;5029907;28;20179;-80
2022/06/05 03:28:38;;;;;;;14.35;7.95;;;17.40;99.90;;;;;;5028431;28;20030;-80
2022/06/05 03:31:08;;;;;;;16.55;9.88;;;17.30;99.90;;;;;;5029408;28;20079;-80
2022/06/05 03:33:37;;;;;;;13.70;10.05;;;17.20;99.90;;;;;;5029221;28;20030;-82
2022/06/05 03:36:08;;;;;;;15.40;9.65;;;17.10;99.90;;;;;;5028099;28;20071;-81
2022/06/05 03:38:34;;;;;;;12.43;9.45;;;17.10;99.90;;;;;;5029519;28;20099;-81
2022/06/05 03:40:59;;;;;;;12.68;8.98;;;17.10;99.90;;;;;;5028519;28;20026;-80
2022/06/05 03:43:25;;;;;;;14.38;9.55;;;17.10;99.90;;;;;;5029761;28;20087;-82
2022/06/05 03:46:08;;;;;;;36.95;10.63;;;17.00;99.90;;;;;;5029793;28;20025;-81
2022/06/05 03:48:35;;;;;;;14.35;9.15;;;17.00;99.90;;;;;;5027853;28;20025;-82
2022/06/05 03:51:17;;;;;;;16.33;9.82;;;17.00;99.90;;;;;;5029653;28;20021;-83
2022/06/05 03:53:44;;;;;;;15.63;9.48;;;17.00;99.90;;;;;;5029490;28;20064;-79
2022/06/05 03:56:11;;;;;;;15.10;10.25;;;16.90;99.90;;;;;;5028061;28;20333;-81
2022/06/05 03:58:38;;;;;;;17.90;9.40;;;17.00;99.90;;;;;;5028357;28;20113;-83
2022/06/05 04:01:10;;;;;;;12.88;8.25;;;17.00;99.90;;;;;;5028162;28;20026;-80
2022/06/05 04:03:36;;;;;;;10.98;7.95;;;17.00;99.90;;;;;;5029376;28;20033;-80
2022/06/05 04:06:06;;;;;;;14.07;9.95;;;17.00;99.90;;;;;;5029533;28;20036;-84
2022/06/05 04:08:31;;;;;;;;;;;16.90;99.90;;;;;;5028737;28;20112;-84
2022/06/05 04:10:57;;;;;;;12.85;8.93;;;16.90;99.90;;;;;;5029189;28;20338;-81
2022/06/05 04:13:23;;;;;;;17.38;9.80;;;17.00;99.90;;;;;;5027846;28;20125;-83
2022/06/05 04:15:48;;;;;;;12.95;9.27;;;17.00;99.90;;;;;;5027757;28;20056;-81
2022/06/05 04:18:14;;;;;;;12.43;9.57;;;17.10;99.90;;;;;;5029034;28;20189;-82
2022/06/05 04:20:40;;;;;;;13.55;9.57;;;17.10;99.90;;;;;;5028087;28;20044;-83
2022/06/05 04:23:08;;;;;;;11.00;8.02;;;17.20;99.90;;;;;;5028574;28;20033;-83
2022/06/05 04:25:34;;;;;;;10.40;7.95;;;17.20;99.90;;;;;;5029423;28;20022;-84
2022/06/05 04:28:00;;;;;;;12.02;6.78;;;17.20;99.90;;;;;;5029338;28;20026;-83
2022/06/05 04:30:26;;;;;;;9.98;7.30;;;17.30;99.90;;;;;;5030337;28;20155;-83
2022/06/05 04:32:52;;;;;;;10.90;7.80;;;17.30;99.90;;;;;;5033182;28;20028;-82
2022/06/05 04:35:18;;;;;;;9.52;7.57;;;17.30;99.90;;;;;;5031365;28;20025;-82
2022/06/05 04:37:44;;;;;;;16.75;9.43;;;18.40;99.90;;;;;;5031644;28;20033;-83
2022/06/05 04:40:10;;;;;;;8.48;5.88;;;17.20;99.90;;;;;;5031413;28;20032;-83
2022/06/05 04:42:36;;;;;;;7.88;5.88;;;17.20;99.90;;;;;;5032558;28;20045;-80
2022/06/05 04:45:03;;;;;;;8.73;6.13;;;17.20;99.90;;;;;;5031287;28;20029;-80
2022/06/05 04:47:29;;;;;;;10.65;7.65;;;17.30;99.90;;;;;;5032570;28;20026;-82
2022/06/05 04:49:55;;;;;;;10.13;6.70;;;17.20;99.90;;;;;;5032263;28;20044;-81
2022/06/05 04:52:20;;;;;;;15.75;7.53;;;17.10;99.90;;;;;;5032440;28;20631;-79
2022/06/05 04:54:46;;;;;;;11.90;6.95;;;17.10;99.90;;;;;;5032426;28;20037;-81
2022/06/05 04:57:12;;;;;;;9.77;6.55;;;17.10;99.90;;;;;;5032107;28;20037;-79
2022/06/05 04:59:38;;;;;;;7.85;6.43;;;17.10;99.90;;;;;;5031037;28;20046;-79
2022/06/05 05:02:03;;;;;;;10.23;7.70;;;17.10;99.90;;;;;;5031058;28;20295;-84
2022/06/05 05:04:29;;;;;;;10.57;7.72;;;17.10;99.90;;;;;;5030579;28;20273;-81
2022/06/05 05:06:55;;;;;;;16.33;8.93;;;17.10;99.90;;;;;;5031978;28;20022;-78
2022/06/05 05:09:21;;;;;;;8.80;6.90;;;17.10;99.90;;;;;;5032253;28;20038;-80
2022/06/05 05:11:46;;;;;;;12.18;7.53;;;17.10;99.90;;;;;;5030461;28;20025;-81
2022/06/05 05:14:12;;;;;;;11.40;7.30;;;17.10;99.90;;;;;;5031916;28;20036;-81
2022/06/05 05:16:38;;;;;;;9.30;7.20;;;17.20;99.90;;;;;;5032078;28;20045;-80
2022/06/05 05:19:04;;;;;;;11.05;7.32;;;17.20;99.90;;;;;;5024666;28;20034;-79
2022/06/05 05:21:30;;;;;;;9.43;7.03;;;17.20;99.90;;;;;;5029901;28;20033;-80
2022/06/05 05:23:55;;;;;;;8.38;6.75;;;17.30;99.90;;;;;;5031485;28;20090;-79
2022/06/05 05:26:24;;;;;;;10.57;7.15;;;17.30;99.90;;;;;;5031110;28;20108;-79
2022/06/05 05:28:52;;;;;;;8.10;6.80;;;17.30;99.90;;;;;;5031638;28;20033;-80
2022/06/05 05:31:29;;;;;;;11.98;7.32;;;17.40;99.90;;;;;;5029953;28;20107;-79
2022/06/05 05:33:56;;;;;;;7.75;6.55;;;17.80;99.90;;;;;;5030909;28;20029;-79
2022/06/05 05:36:23;;;;;;;11.68;6.68;;;18.10;99.90;;;;;;5029703;28;20024;-79
2022/06/05 05:44:20;;;;;;;10.93;5.00;;;18.50;99.90;;;;;;5030934;28;20040;-79
2022/06/05 05:46:46;;;;;;;8.07;5.78;;;18.90;99.90;;;;;;5029630;28;20037;-79
2022/06/05 05:49:14;;;;;;;6.05;5.38;;;18.90;99.90;;;;;;5031154;28;20032;-79
2022/06/05 05:51:40;;;;;;;11.27;5.38;;;19.00;99.90;;;;;;5029676;28;20022;-80
2022/06/05 05:54:06;;;;;;;6.72;5.15;;;19.10;99.90;;;;;;5030909;28;20026;-79
2022/06/05 05:56:32;;;;;;;6.18;5.57;;;19.50;99.90;;;;;;5030996;28;20048;-81
2022/06/05 05:58:58;;;;;;;5.72;4.32;;;19.90;99.90;;;;;;5030832;28;20107;-80
2022/06/05 06:01:24;;;;;;;6.10;4.68;;;20.10;99.90;;;;;;5031057;28;20025;-82
2022/06/05 06:03:50;;;;;;;5.85;4.45;;;20.40;99.90;;;;;;5034648;28;20059;-81
2022/06/05 06:06:28;;;;;;;8.88;4.63;;;20.50;99.90;;;;;;5032858;28;20029;-82
2022/06/05 06:08:54;;;;;;;4.40;3.65;;;20.60;99.90;;;;;;5022874;28;20021;-82
2022/06/05 06:11:20;;;;;;;7.80;3.20;;;20.40;99.90;;;;;;5010883;28;20049;-82
2022/06/05 06:13:45;;;;;;;4.63;3.05;;;20.50;99.90;;;;;;5024122;28;20029;-80
2022/06/05 06:16:11;;;;;;;2.72;2.50;;;20.90;99.90;;;;;;5008742;28;20116;-80
2022/06/05 06:18:37;;;;;;;2.88;2.67;;;21.00;99.90;;;;;;5010428;28;20097;-81
2022/06/05 06:21:03;;;;;;;4.22;3.17;;;21.10;99.90;;;;;;5031593;28;20047;-84
2022/06/05 06:23:29;;;;;;;2.80;2.55;;;20.80;99.90;;;;;;5044877;28;20021;-79
2022/06/05 06:25:54;;;;;;;2.72;2.53;;;20.70;99.90;;;;;;5050518;28;20021;-80
2022/06/05 06:28:20;;;;;;;3.53;2.60;;;20.50;99.90;;;;;;5037888;28;20386;-80
2022/06/05 06:30:46;;;;;;;2.75;2.40;;;20.80;99.90;;;;;;5032604;28;20025;-79
2022/06/05 06:33:11;;;;;;;3.22;2.92;;;21.10;99.90;;;;;;5030672;28;20500;-79
2022/06/05 06:35:37;;;;;;;4.13;3.20;;;21.40;99.90;;;;;;5037290;28;20096;-80
2022/06/05 06:38:04;;;;;;;4.47;2.80;;;21.00;99.90;;;;;;5050265;28;20036;-80
2022/06/05 06:40:30;;;;;;;4.07;2.78;;;21.20;99.90;;;;;;5038927;28;20085;-80
2022/06/05 06:42:56;;;;;;;2.67;2.47;;;21.30;99.90;;;;;;5029893;28;20091;-79
2022/06/05 06:45:22;;;;;;;4.15;2.67;;;21.30;99.90;;;;;;5023326;28;20105;-79
2022/06/05 06:47:48;;;;;;;6.00;3.05;;;21.80;99.90;;;;;;5028471;28;20240;-80
2022/06/05 06:50:15;;;;;;;3.30;2.03;;;22.20;99.90;;;;;;5032353;28;20598;-80
2022/06/05 06:52:41;;;;;;;2.30;1.90;;;22.80;99.90;;;;;;5029634;28;20021;-79
2022/06/05 06:55:10;;;;;;;3.25;2.00;;;24.00;99.90;;;;;;5031809;28;20021;-79
2022/06/05 06:57:36;;;;;;;5.05;2.25;;;24.60;99.90;;;;;;5030102;28;20099;-82
2022/06/05 07:00:02;;;;;;;3.05;2.75;;;25.30;99.90;;;;;;5032995;28;20105;-80
2022/06/05 07:02:28;;;;;;;3.58;1.95;;;24.70;99.90;;;;;;5029508;28;20443;-79
2022/06/05 07:04:53;;;;;;;4.15;1.75;;;25.20;99.90;;;;;;5025005;28;20053;-79
2022/06/05 07:07:19;;;;;;;1.95;1.85;;;26.00;99.90;;;;;;5032694;28;20026;-78
2022/06/05 07:09:45;;;;;;;2.55;2.35;;;27.20;99.90;;;;;;5043869;28;20474;-81
2022/06/05 07:12:10;;;;;;;3.35;2.30;;;26.60;99.90;;;;;;5028157;28;20433;-81
2022/06/05 07:14:36;;;;;;;2.15;1.70;;;25.30;99.90;;;;;;5046682;28;20032;-80
2022/06/05 07:17:02;;;;;;;8.40;2.40;;;24.00;99.90;;;;;;5029177;28;20069;-72
2022/06/05 07:19:28;;;;;;;5.40;2.63;;;23.10;99.90;;;;;;5030229;28;20029;-80
2022/06/05 07:21:53;;;;;;;2.08;1.85;;;22.40;99.90;;;;;;5011169;28;20502;-75
2022/06/05 07:24:19;;;;;;;2.45;2.25;;;21.90;99.90;;;;;;5012508;28;20064;-72
2022/06/05 07:26:44;;;;;;;3.90;2.30;;;21.70;99.90;;;;;;5015536;28;20052;-72
2022/06/05 07:29:10;;;;;;;4.45;2.55;;;21.50;99.90;;;;;;5015408;28;20088;-80
2022/06/05 07:31:36;;;;;;;2.42;2.28;;;21.30;99.90;;;;;;5014645;28;20014;-72
2022/06/05 07:34:02;;;;;;;2.80;2.50;;;21.20;99.90;;;;;;5008912;28;20030;-72
2022/06/05 07:36:29;;;;;;;5.43;2.67;;;21.40;99.90;;;;;;5009504;28;20022;-72
2022/06/05 07:38:55;;;;;;;3.15;2.35;;;21.60;99.90;;;;;;5009008;28;20026;-71
2022/06/05 07:41:27;;;;;;;2.85;2.17;;;21.90;99.90;;;;;;5009460;28;20483;-71
2022/06/05 07:43:54;;;;;;;6.57;3.17;;;22.00;99.90;;;;;;5007803;28;20037;-75
2022/06/05 07:46:20;;;;;;;2.97;2.38;;;22.00;99.90;;;;;;5026695;28;20482;-72
2022/06/05 07:48:46;;;;;;;4.50;2.35;;;22.00;99.90;;;;;;5028464;28;20025;-70
2022/06/05 07:56:48;;;;;;;4.28;2.70;;;22.50;99.90;;;;;;5009288;28;20307;-73
2022/06/05 07:59:14;;;;;;;4.18;2.17;;;22.70;99.90;;;;;;5008545;28;20026;-74
2022/06/05 08:01:42;;;;;;;3.58;2.30;;;23.00;99.90;;;;;;5026343;28;20410;-75
2022/06/05 08:04:08;;;;;;;2.60;2.42;;;23.20;99.90;;;;;;5027590;28;20032;-75
2022/06/05 08:06:34;;;;;;;3.40;3.10;;;23.20;99.90;;;;;;5031399;28;20026;-75
2022/06/05 08:09:05;;;;;;;2.10;1.98;;;23.10;99.90;;;;;;5032591;28;20026;-75
2022/06/05 08:11:32;;;;;;;3.33;2.58;;;22.90;99.90;;;;;;5032221;28;20108;-75
2022/06/05 08:13:59;;;;;;;3.13;2.38;;;22.60;99.90;;;;;;5047417;28;20025;-75
2022/06/05 08:16:25;;;;;;;3.55;2.08;;;22.40;99.90;;;;;;5032027;28;20045;-75
2022/06/05 08:18:54;;;;;;;2.17;1.80;;;22.40;99.90;;;;;;5031134;28;20027;-75
2022/06/05 08:21:21;;;;;;;3.35;1.10;;;22.50;99.90;;;;;;5030807;28;20032;-76
2022/06/05 08:23:47;;;;;;;1.23;1.00;;;22.40;99.90;;;;;;5032215;28;20033;-75
2022/06/05 08:26:14;;;;;;;2.13;1.35;;;22.30;99.90;;;;;;5047798;28;20021;-74
2022/06/05 08:28:40;;;;;;;3.78;1.38;;;22.30;99.90;;;;;;5032372;28;20021;-75
2022/06/05 08:31:08;;;;;;;1.42;1.15;;;22.20;99.90;;;;;;5047789;28;20033;-75
2022/06/05 08:33:33;;;;;;;1.00;0.90;;;22.10;99.90;;;;;;5032494;28;20029;-75
2022/06/05 08:35:59;;;;;;;2.88;1.00;;;21.90;99.90;;;;;;5047109;28;20393;-81
2022/06/05 08:41:27;;;;;;;1.42;1.20;;;22.10;99.90;;;;;;5017575;28;20056;-76
2022/06/05 08:44:08;;;;;;;2.47;1.70;;;21.90;99.90;;;;;;5011451;28;20072;-73
2022/06/05 08:46:56;;;;;;;2.30;2.10;;;22.10;99.90;;;;;;5012429;28;20483;-76
2022/06/05 08:49:47;;;;;;;3.63;2.05;;;21.50;99.90;;;;;;5008718;28;20038;-75
2022/06/05 08:52:49;;;;;;;2.30;2.10;;;23.20;99.90;;;;;;5012227;28;20520;-74
2022/06/05 08:55:21;;;;;;;2.00;1.90;;;24.10;99.90;;;;;;5012069;28;20041;-74
2022/06/05 08:58:09;;;;;;;2.55;2.35;;;25.10;99.90;;;;;;5011922;28;20048;-74
2022/06/05 09:00:42;;;;;;;3.97;2.00;;;24.90;99.90;;;;;;5011906;28;20410;-75
2022/06/05 09:03:10;;;;;;;2.50;1.50;;;24.80;99.90;;;;;;5012024;28;20037;-75
2022/06/05 09:05:42;;;;;;;3.88;2.03;;;24.70;99.90;;;;;;5011889;28;20018;-74
2022/06/05 09:08:15;;;;;;;1.90;1.80;;;24.50;99.90;;;;;;5012049;28;20425;-75
2022/06/05 09:10:50;;;;;;;2.72;1.85;;;24.40;99.90;;;;;;5012021;28;20030;-74
2022/06/05 09:13:18;;;;;;;2.72;1.52;;;24.10;99.90;;;;;;5011867;28;20121;-75
2022/06/05 09:15:51;;;;;;;2.90;1.58;;;23.80;99.90;;;;;;5010261;28;20046;-75
2022/06/05 09:18:20;;;;;;;2.65;2.22;;;23.40;99.90;;;;;;5010843;28;20059;-77
2022/06/05 09:20:56;;;;;;;10.90;3.95;;;23.40;99.90;;;;;;5027336;28;20052;-84
2022/06/05 09:23:55;;;;;;;3.58;2.78;;;23.20;99.90;;;;;;5012140;28;20058;-82
2022/06/05 09:26:39;;;;;;;3.85;2.90;;;22.90;99.90;;;;;;5002817;28;20824;-80
2022/06/05 09:29:15;;;;;;;3.30;3.00;;;22.60;99.90;;;;;;5027747;28;20033;-79
2022/06/05 09:32:14;;;;;;;3.42;2.80;;;22.60;99.90;;;;;;5029079;28;20022;-79
2022/06/05 09:34:46;;;;;;;3.72;2.83;;;22.50;99.90;;;;;;5027370;28;20029;-80
2022/06/05 09:37:35;;;;;;;4.95;3.05;;;22.40;99.90;;;;;;5044815;28;20037;-79
2022/06/05 09:40:13;;;;;;;7.10;2.35;;;22.30;99.90;;;;;;5029077;28;20025;-81
2022/06/05 09:43:01;;;;;;;1.17;0.65;;;22.20;99.90;;;;;;5043676;28;20474;-82
2022/06/05 09:45:51;;;;;;;1.73;0.47;;;22.00;99.90;;;;;;5026852;28;20064;-81
2022/06/05 09:48:48;;;;;;;3.60;0.40;;;22.10;99.90;;;;;;5028585;28;20033;-79
2022/06/05 09:51:16;;;;;;;1.27;0.57;;;22.60;99.90;;;;;;5043142;28;20183;-80
2022/06/05 09:53:48;;;;;;;2.38;0.60;;;22.80;99.90;;;;;;5043330;28;20026;-79
2022/06/05 10:00:03;;;;;;;;;;;22.70;99.90;;;;;;5006983;28;20048;-82
2022/06/05 10:02:30;;;;;;;0.85;0.40;;;23.00;99.90;;;;;;5025767;28;19916;-79
2022/06/05 10:04:56;;;;;;;0.70;0.43;;;23.00;99.90;;;;;;5027765;28;20042;-81
2022/06/05 10:07:34;;;;;;;2.17;0.45;;;22.50;99.90;;;;;;5028378;28;20532;-81
2022/06/05 10:10:17;;;;;;;2.10;0.47;;;22.70;99.90;;;;;;5042708;28;20509;-82
2022/06/05 10:12:48;;;;;;;0.95;0.38;;;22.20;99.90;;;;;;5027517;28;20034;-81
2022/06/05 10:15:23;;;;;;;1.13;0.40;;;22.30;99.90;;;;;;5027647;28;20119;-80
2022/06/05 10:17:53;;;;;;;0.57;0.50;;;22.40;99.90;;;;;;5027550;28;20033;-80
2022/06/05 10:20:33;;;;;;;1.05;0.40;;;22.40;99.90;;;;;;5026007;28;20022;-81
2022/06/05 10:23:14;;;;;;;0.30;0.30;;;22.60;99.90;;;;;;5021317;28;20033;-81
2022/06/05 10:25:46;;;;;;;0.75;0.70;;;23.10;99.90;;;;;;5004938;28;20230;-81
2022/06/05 10:28:16;;;;;;;1.60;1.05;;;23.90;99.90;;;;;;5004528;28;20142;-80
2022/06/05 10:31:10;;;;;;;0.30;0.30;;;24.90;99.90;;;;;;5006219;28;20064;-81
2022/06/05 10:33:39;;;;;;;2.75;0.50;;;24.90;99.90;;;;;;5004733;28;20036;-80
2022/06/05 10:36:17;;;;;;;0.10;0.10;;;24.50;99.90;;;;;;5007324;28;20444;-79
2022/06/05 10:38:42;;;;;;;0.28;0.20;;;23.90;99.90;;;;;;5005675;28;20052;-79
2022/06/05 10:41:34;;;;;;;0.50;0.20;;;23.80;99.90;;;;;;5007892;28;20034;-80
2022/06/05 10:44:37;;;;;;;4.60;1.95;;;24.20;99.90;;;;;;4988932;28;20038;-79
2022/06/05 10:47:12;;;;;;;0.65;0.20;;;24.40;99.90;;;;;;5007277;28;20030;-80
2022/06/05 10:49:56;;;;;;;1.13;0.30;;;24.90;99.90;;;;;;5005497;28;20025;-80
2022/06/05 10:52:47;;;;;;;0.20;0.20;;;25.40;99.90;;;;;;5007075;28;20506;-80
2022/06/05 10:55:34;;;;;;;1.95;1.05;;;25.90;99.90;;;;;;5007216;28;20532;-80
2022/06/05 10:58:31;;;;;;;1.00;0.50;;;26.00;95.80;;;;;;5006014;28;20037;-81
2022/06/05 11:01:12;;;;;;;1.48;0.77;;;25.70;99.80;;;;;;5005831;28;20049;-81
2022/06/05 11:03:53;;;;;;;2.08;1.67;;;25.90;99.90;;;;;;5005854;28;20057;-81
2022/06/05 11:06:47;;;;;;;0.63;0.32;;;24.00;99.90;;;;;;5006699;28;20052;-80
2022/06/05 11:09:34;;;;;;;1.20;0.30;;;27.20;93.10;;;;;;5005942;28;20477;-81
2022/06/05 11:15:22;;;;;;;0.55;0.32;;;26.40;84.80;;;;;;5006751;28;20454;-77
2022/06/05 11:18:11;;;;;;;0.63;0.20;;;25.80;98.00;;;;;;5005583;28;20038;-79
2022/06/05 11:20:42;;;;;;;2.75;1.40;;;25.70;98.60;;;;;;5006433;28;20026;-79
2022/06/05 11:23:20;;;;;;;0.50;0.30;;;25.00;99.90;;;;;;5041876;28;20030;-76
2022/06/05 11:26:08;;;;;;;1.20;0.20;;;24.30;99.90;;;;;;5025378;28;20122;-74
2022/06/05 11:28:45;;;;;;;1.35;0.40;;;24.40;99.90;;;;;;5026400;28;20522;-78
2022/06/05 11:31:11;;;;;;;0.30;0.30;;;24.30;99.90;;;;;;5026283;28;20088;-75
2022/06/05 11:34:15;;;;;;;0.57;0.57;;;24.30;99.90;;;;;;5026964;28;20033;-77
2022/06/05 11:36:48;;;;;;;1.30;0.40;;;24.40;99.90;;;;;;5010793;28;20029;-78
2022/06/05 11:39:36;;;;;;;1.73;0.30;;;24.80;99.90;;;;;;5025348;28;20110;-78
2022/06/05 11:42:25;;;;;;;1.03;0.60;;;25.00;99.90;;;;;;5024424;28;20033;-77
2022/06/05 11:45:03;;;;;;;1.05;0.47;;;24.80;99.90;;;;;;5024236;28;20028;-78
2022/06/05 11:47:54;;;;;;;1.50;0.50;;;25.00;99.90;;;;;;5025666;28;20055;-76
2022/06/05 11:50:36;;;;;;;1.45;0.30;;;24.70;99.90;;;;;;5026515;28;20030;-77
2022/06/05 11:53:07;;;;;;;0.80;0.77;;;25.20;99.90;;;;;;5029668;28;20064;-76
2022/06/05 11:56:02;;;;;;;0.98;0.30;;;24.90;99.90;;;;;;5025103;28;20505;-77
2022/06/05 11:59:05;;;;;;;3.72;0.90;;;25.20;99.90;;;;;;5025381;28;20065;-79
2022/06/05 12:01:37;;;;;;;1.13;0.50;;;24.90;99.90;;;;;;5024590;28;20498;-76
2022/06/05 12:04:36;;;;;;;4.25;0.40;;;25.10;99.90;;;;;;5024541;28;20518;-75
2022/06/05 12:07:04;;;;;;;0.73;0.55;;;24.70;99.90;;;;;;5022872;28;20029;-76
2022/06/05 12:09:45;;;;;;;1.30;0.40;;;25.10;99.90;;;;;;5024821;28;20033;-76
2022/06/05 12:12:28;;;;;;;1.13;0.20;;;25.00;99.90;;;;;;5023984;28;20037;-76
2022/06/05 12:15:22;;;;;;;0.43;0.43;;;25.50;99.90;;;;;;5022718;28;20077;-74
2022/06/05 12:17:56;;;;;;;0.47;0.40;;;24.90;99.90;;;;;;5022893;28;20367;-76
2022/06/05 12:20:49;;;;;;;4.38;0.88;;;24.50;99.90;;;;;;5024349;28;20116;-76
2022/06/05 12:23:27;;;;;;;1.00;0.32;;;24.60;99.90;;;;;;5020279;28;20026;-76
2022/06/05 12:25:57;;;;;;;0.95;0.50;;;24.80;99.90;;;;;;5004979;28;20079;-75
2022/06/05 12:28:36;;;;;;;0.98;0.43;;;25.40;99.90;;;;;;5004549;28;20038;-76
2022/06/05 12:31:26;;;;;;;2.90;0.20;;;25.30;99.90;;;;;;5004819;28;20384;-76
2022/06/05 12:34:15;;;;;;;0.80;0.77;;;25.60;99.90;;;;;;5003341;28;20394;-75
2022/06/05 12:37:02;;;;;;;0.15;0.15;;;25.50;99.90;;;;;;5005578;28;20101;-77
2022/06/05 12:39:33;;;;;;;0.40;0.30;;;25.10;99.90;;;;;;5005558;28;20053;-75
2022/06/05 12:42:39;;;;;;;3.97;2.38;;;25.10;99.90;;;;;;5006570;28;20517;-77
2022/06/05 12:45:24;;;;;;;1.50;0.38;;;25.30;99.90;;;;;;5006513;28;20057;-75
2022/06/05 12:47:59;;;;;;;1.35;0.30;;;25.40;99.90;;;;;;5005677;28;20105;-75
2022/06/05 12:51:05;;;;;;;0.52;0.25;;;25.20;99.90;;;;;;5005510;28;20045;-75
2022/06/05 12:53:43;;;;;;;0.38;0.20;;;;;;;;;;5006632;28;20025;-78
2022/06/05 12:56:33;;;;;;;1.67;0.50;;;25.10;99.90;;;;;;5010567;28;20061;-75
2022/06/05 12:59:10;;;;;;;0.60;0.40;;;25.10;99.90;;;;;;5009508;28;20510;-80
2022/06/05 13:01:58;;;;;;;1.00;0.50;;;25.40;99.90;;;;;;5007697;28;20026;-79
2022/06/05 13:04:52;;;;;;;0.68;0.30;;;25.80;88.50;;;;;;5008297;28;20037;-79
2022/06/05 13:07:21;;;;;;;2.97;0.38;;;26.50;88.80;;;;;;5008738;28;20037;-79
2022/06/05 13:09:59;;;;;;;0.82;0.30;;;26.70;91.50;;;;;;5007738;28;20033;-79
2022/06/05 13:12:36;;;;;;;0.98;0.20;;;27.10;73.50;;;;;;5007704;28;20033;-79
2022/06/05 13:15:26;;;;;;;0.25;0.20;;;26.80;77.60;;;;;;5007781;28;20383;-78
2022/06/05 13:18:19;;;;;;;0.20;0.20;;;25.40;99.90;;;;;;5009034;28;20042;-78
2022/06/05 13:20:51;;;;;;;1.35;0.40;;;24.90;99.90;;;;;;5007638;28;20072;-78
2022/06/05 13:23:38;;;;;;;0.68;0.38;;;24.60;99.90;;;;;;5029425;28;20102;-76
2022/06/05 13:26:37;;;;;;;2.90;0.55;;;23.90;99.90;;;;;;5022153;28;20116;-78
2022/06/05 13:29:22;;;;;;;2.47;0.50;;;24.50;99.90;;;;;;5024144;28;20026;-78
2022/06/05 13:32:18;;;;;;;0.65;0.40;;;24.90;99.90;;;;;;5007593;28;20482;-75
2022/06/05 13:35:16;;;;;;;0.73;0.40;;;24.90;99.90;;;;;;5008090;28;20635;-76
2022/06/05 13:37:48;;;;;;;1.27;1.00;;;24.80;99.90;;;;;;5015162;28;20061;-79
2022/06/05 13:40:19;;;;;;;1.42;0.40;;;23.80;99.90;;;;;;5023827;28;20037;-79
2022/06/05 13:42:49;;;;;;;1.33;0.95;;;23.90;99.90;;;;;;5024316;28;20096;-79
2022/06/05 13:45:29;;;;;;;;;;;24.80;99.90;;;;;;5009162;28;20025;-78
2022/06/05 13:48:08;;;;;;;0.38;0.38;;;25.20;99.90;;;;;;5008450;28;20282;-79